Time;durP1;ratioP1;P1;durP2;ratioP2;P2;SDS_P1;SDS_P2;PMS_P1;PMS_P2;Temp;Humidity;BMP_temperature;BMP_pressure;BME280_temperature;BME280_humidity;BME280_pressure;Samples;Min_cycle;Max_cycle;Signal;HPM_P1;HPM_P2
2022/07/20 00:00:49;;;;;;;6.22;2.72;;;;;;;;;;5050943;28;20107;-58
2022/07/20 00:03:15;;;;;;;5.13;3.25;;;;;;;;;;5051930;28;20151;-58
2022/07/20 00:05:41;;;;;;;5.63;3.40;;;;;;;;;;5051039;28;20056;-58
2022/07/20 00:08:08;;;;;;;5.70;3.63;;;;;;;;;;5051526;28;20033;-58
2022/07/20 00:13:19;;;;;;;6.38;3.17;;;;;;;;;;5051922;28;20033;-58
2022/07/20 00:15:45;;;;;;;5.60;3.25;;;;;;;;;;5045076;28;20457;-58
2022/07/20 00:18:12;;;;;;;4.78;3.47;;;;;;;;;;5050058;28;20039;-58
2022/07/20 00:20:38;;;;;;;7.95;3.80;;;;;;;;;;5050949;28;20036;-57
2022/07/20 00:23:04;;;;;;;7.45;4.60;;;;;;;;;;5051557;28;20028;-58
2022/07/20 00:25:30;;;;;;;8.10;4.07;;;;;;;;;;5050619;28;20040;-52
2022/07/20 00:27:56;;;;;;;6.53;3.55;;;;;;;;;;5051083;28;20039;-58
2022/07/20 00:30:22;;;;;;;9.32;3.92;;;;;;;;;;5050059;28;20047;-57
2022/07/20 00:32:49;;;;;;;7.45;3.53;;;;;;;;;;5050635;28;20104;-58
2022/07/20 00:35:16;;;;;;;9.10;3.55;;;;;;;;;;5051501;28;20385;-58
2022/07/20 00:37:42;;;;;;;7.65;3.58;;;;;;;;;;5050628;28;20033;-58
2022/07/20 00:40:09;;;;;;;6.40;3.45;;;;;;;;;;5051269;28;20108;-58
2022/07/20 00:42:36;;;;;;;5.07;3.78;;;;;;;;;;5050723;28;20036;-58
2022/07/20 00:45:03;;;;;;;7.15;3.60;;;;;;;;;;5051472;28;20473;-58
2022/07/20 00:47:29;;;;;;;3.92;2.90;;;;;;;;;;5052676;28;20389;-57
2022/07/20 00:49:55;;;;;;;5.40;3.28;;;;;;;;;;5051494;28;20025;-58
2022/07/20 00:52:21;;;;;;;7.60;3.53;;;;;;;;;;5051674;28;20032;-58
2022/07/20 00:54:48;;;;;;;8.80;3.65;;;;;;;;;;5054344;28;20409;-57
2022/07/20 00:57:14;;;;;;;4.70;3.22;;;;;;;;;;5055511;28;20036;-59
2022/07/20 00:59:40;;;;;;;6.60;3.00;;;;;;;;;;5054389;28;20029;-58
2022/07/20 01:02:06;;;;;;;12.13;3.42;;;;;;;;;;5055202;28;20381;-58
2022/07/20 01:04:32;;;;;;;4.82;3.13;;;;;;;;;;5051707;28;20106;-51
2022/07/20 01:06:58;;;;;;;4.47;2.88;;;;;;;;;;5036581;28;20493;-54
2022/07/20 01:09:24;;;;;;;6.35;3.40;;;;;;;;;;5054956;28;20029;-59
2022/07/20 01:11:50;;;;;;;5.20;3.25;;;;;;;;;;5053867;28;20528;-56
2022/07/20 01:14:17;;;;;;;4.88;2.58;;;;;;;;;;5055234;28;20035;-59
2022/07/20 01:16:43;;;;;;;4.70;3.25;;;;;;;;;;5054097;28;20031;-59
2022/07/20 01:19:09;;;;;;;4.70;2.55;;;;;;;;;;5054844;28;20032;-58
2022/07/20 01:21:41;;;;;;;4.95;2.85;;;;;;;;;;5054226;28;20108;-51
2022/07/20 01:24:11;;;;;;;3.97;2.72;;;;;;;;;;5054008;28;20051;-58
2022/07/20 01:26:40;;;;;;;5.95;2.92;;;;;;;;;;5054081;28;20060;-58
2022/07/20 01:29:07;;;;;;;4.00;2.72;;;;;;;;;;5054518;28;20040;-58
2022/07/20 01:31:33;;;;;;;7.05;3.33;;;;;;;;;;5054454;28;20071;-52
2022/07/20 01:34:00;;;;;;;4.40;3.15;;;;;;;;;;5054062;28;20028;-58
2022/07/20 01:36:26;;;;;;;9.27;2.80;;;;;;;;;;5054761;28;20108;-58
2022/07/20 01:38:52;;;;;;;3.97;2.63;;;;;;;;;;5052860;28;20040;-54
2022/07/20 01:41:18;;;;;;;5.97;2.88;;;;;;;;;;5052061;28;20029;-58
2022/07/20 01:43:44;;;;;;;3.35;2.33;;;;;;;;;;5053687;28;20040;-57
2022/07/20 01:46:10;;;;;;;5.25;2.47;;;;;;;;;;5054045;28;20025;-58
2022/07/20 01:48:36;;;;;;;4.80;2.60;;;;;;;;;;5053484;28;20036;-52
2022/07/20 01:51:02;;;;;;;3.55;2.42;;;;;;;;;;5054219;28;20071;-58
2022/07/20 01:53:28;;;;;;;4.80;3.28;;;;;;;;;;5053421;28;20397;-58
2022/07/20 01:55:54;;;;;;;4.57;2.85;;;;;;;;;;5048085;28;20180;-57
2022/07/20 01:58:21;;;;;;;7.20;2.80;;;;;;;;;;5054063;28;20063;-58
2022/07/20 02:00:47;;;;;;;8.52;3.20;;;;;;;;;;5053166;28;21685;-58
2022/07/20 02:03:13;;;;;;;3.33;2.70;;;;;;;;;;5054123;28;20462;-58
2022/07/20 02:05:39;;;;;;;5.70;2.88;;;;;;;;;;5050091;28;20131;-56
2022/07/20 02:08:05;;;;;;;3.55;2.90;;;;;;;;;;5045798;28;20025;-58
2022/07/20 02:10:31;;;;;;;7.53;2.35;;;;;;;;;;5053625;28;20414;-58
2022/07/20 02:12:57;;;;;;;4.28;2.55;;;;;;;;;;5051423;28;20021;-57
2022/07/20 02:18:09;;;;;;;4.47;2.70;;;;;;;;;;5053562;28;20094;-58
2022/07/20 02:20:35;;;;;;;4.53;2.78;;;;;;;;;;5053387;28;20043;-51
2022/07/20 02:23:05;;;;;;;4.78;2.35;;;;;;;;;;5053157;28;20032;-58
2022/07/20 02:25:31;;;;;;;4.88;3.13;;;;;;;;;;5053849;28;20079;-58
2022/07/20 02:27:57;;;;;;;3.47;2.42;;;;;;;;;;5048664;28;20589;-58
2022/07/20 02:30:23;;;;;;;6.45;3.22;;;;;;;;;;5047550;28;20029;-58
2022/07/20 02:32:49;;;;;;;5.13;2.67;;;;;;;;;;5050087;28;20033;-56
2022/07/20 02:35:15;;;;;;;5.03;2.47;;;;;;;;;;5052944;28;20021;-57
2022/07/20 02:37:41;;;;;;;4.85;2.80;;;;;;;;;;5052535;28;20359;-57
2022/07/20 02:40:08;;;;;;;4.50;2.60;;;;;;;;;;5054353;28;20056;-57
2022/07/20 02:42:34;;;;;;;4.60;2.47;;;;;;;;;;5053246;28;20025;-58
2022/07/20 02:45:00;;;;;;;4.22;2.55;;;;;;;;;;5052596;28;20029;-58
2022/07/20 02:47:26;;;;;;;5.70;2.80;;;;;;;;;;5053164;28;20377;-58
2022/07/20 02:49:51;;;;;;;4.22;2.78;;;;;;;;;;5049984;28;20032;-58
2022/07/20 02:52:18;;;;;;;5.82;2.80;;;;;;;;;;5047844;28;20025;-58
2022/07/20 02:54:44;;;;;;;8.77;2.50;;;;;;;;;;5052752;28;20025;-57
2022/07/20 02:57:10;;;;;;;6.28;3.08;;;;;;;;;;5052907;28;20024;-58
2022/07/20 02:59:35;;;;;;;5.20;2.50;;;;;;;;;;5053149;28;20115;-58
2022/07/20 03:02:01;;;;;;;5.32;2.70;;;;;;;;;;5052719;28;20616;-57
2022/07/20 03:04:27;;;;;;;3.88;2.72;;;;;;;;;;5052725;28;20021;-58
2022/07/20 03:06:53;;;;;;;5.68;2.42;;;;;;;;;;5052504;28;20069;-58
2022/07/20 03:09:19;;;;;;;4.30;2.88;;;;;;;;;;5048687;28;20033;-57
2022/07/20 03:11:45;;;;;;;6.72;3.25;;;;;;;;;;5052023;28;20059;-58
2022/07/20 03:14:11;;;;;;;5.90;2.72;;;;;;;;;;5049941;28;20017;-57
2022/07/20 03:16:37;;;;;;;4.40;2.70;;;;;;;;;;5052496;28;20024;-52
2022/07/20 03:19:03;;;;;;;6.63;2.70;;;;;;;;;;5047487;28;20060;-57
2022/07/20 03:21:29;;;;;;;6.32;3.33;;;;;;;;;;5052575;28;20104;-58
2022/07/20 03:23:55;;;;;;;6.75;2.70;;;;;;;;;;5049235;28;20079;-57
2022/07/20 03:26:22;;;;;;;4.18;2.45;;;;;;;;;;5052537;28;20028;-58
2022/07/20 03:28:48;;;;;;;4.40;2.60;;;;;;;;;;5051438;28;20041;-57
2022/07/20 03:31:14;;;;;;;6.45;2.67;;;;;;;;;;5052389;28;20029;-58
2022/07/20 03:33:40;;;;;;;4.38;2.33;;;;;;;;;;5047435;28;20043;-50
2022/07/20 03:36:06;;;;;;;6.05;3.33;;;;;;;;;;5051984;28;20033;-58
2022/07/20 03:38:32;;;;;;;3.85;2.70;;;;;;;;;;5056416;28;20028;-57
2022/07/20 03:40:58;;;;;;;4.38;2.40;;;;;;;;;;5049023;28;20458;-57
2022/07/20 03:43:25;;;;;;;3.72;2.65;;;;;;;;;;5050766;28;20118;-58
2022/07/20 03:45:52;;;;;;;3.90;2.47;;;;;;;;;;5051329;28;20025;-58
2022/07/20 03:48:18;;;;;;;4.70;2.80;;;;;;;;;;5052170;28;20118;-58
2022/07/20 03:50:46;;;;;;;4.13;2.15;;;;;;;;;;5051164;28;20029;-57
2022/07/20 03:53:12;;;;;;;3.28;2.50;;;;;;;;;;5050735;28;20025;-58
2022/07/20 03:55:38;;;;;;;4.25;2.88;;;;;;;;;;5053206;28;20039;-58
2022/07/20 03:58:04;;;;;;;4.43;2.65;;;;;;;;;;5049148;28;20033;-58
2022/07/20 04:00:30;;;;;;;4.90;2.35;;;;;;;;;;5047902;28;20083;-57
2022/07/20 04:02:57;;;;;;;4.05;2.38;;;;;;;;;;5051099;28;20028;-58
2022/07/20 04:05:23;;;;;;;4.35;2.50;;;;;;;;;;5051634;28;20052;-57
2022/07/20 04:07:49;;;;;;;4.97;3.40;;;;;;;;;;5050875;28;20032;-57
2022/07/20 04:10:15;;;;;;;4.00;2.72;;;;;;;;;;5051768;28;20025;-58
2022/07/20 04:12:41;;;;;;;5.95;2.88;;;;;;;;;;5051574;28;20112;-51
2022/07/20 04:15:08;;;;;;;4.35;2.70;;;;;;;;;;5051256;28;20021;-58
2022/07/20 04:17:34;;;;;;;4.22;2.65;;;;;;;;;;5049018;28;20021;-58
2022/07/20 04:20:00;;;;;;;4.95;2.65;;;;;;;;;;5051151;28;20021;-58
2022/07/20 04:22:26;;;;;;;4.07;3.10;;;;;;;;;;5050752;28;20033;-58
2022/07/20 04:24:52;;;;;;;6.68;3.08;;;;;;;;;;5050772;28;20029;-57
2022/07/20 04:27:18;;;;;;;4.10;2.15;;;;;;;;;;5051015;28;20457;-57
2022/07/20 04:29:44;;;;;;;7.88;2.85;;;;;;;;;;5050458;28;20024;-50
2022/07/20 04:32:10;;;;;;;3.90;2.75;;;;;;;;;;5050844;28;20029;-58
2022/07/20 04:34:36;;;;;;;4.53;2.60;;;;;;;;;;5048224;28;20104;-58
2022/07/20 04:37:02;;;;;;;4.50;2.55;;;;;;;;;;5050251;28;20025;-58
2022/07/20 04:39:28;;;;;;;5.53;2.10;;;;;;;;;;5055448;28;20025;-53
2022/07/20 04:41:54;;;;;;;3.95;2.70;;;;;;;;;;5050069;28;20113;-57
2022/07/20 04:44:20;;;;;;;5.18;2.85;;;;;;;;;;5051343;28;20021;-57
2022/07/20 04:46:46;;;;;;;5.47;2.80;;;;;;;;;;5050212;28;20096;-51
2022/07/20 04:49:12;;;;;;;5.35;2.85;;;;;;;;;;5048992;28;20425;-56
2022/07/20 04:51:38;;;;;;;5.85;2.28;;;;;;;;;;5048548;28;20072;-58
2022/07/20 04:54:04;;;;;;;7.43;3.33;;;;;;;;;;5050574;28;20031;-58
2022/07/20 04:56:30;;;;;;;6.13;3.25;;;;;;;;;;5051218;28;20029;-58
2022/07/20 04:58:56;;;;;;;6.88;3.13;;;;;;;;;;5050117;28;20044;-58
2022/07/20 05:01:23;;;;;;;5.88;3.58;;;;;;;;;;5051128;28;20375;-59
2022/07/20 05:03:49;;;;;;;5.25;2.97;;;;;;;;;;5050458;28;20147;-57
2022/07/20 05:06:15;;;;;;;4.63;2.88;;;;;;;;;;5049114;28;20099;-58
2022/07/20 05:08:42;;;;;;;6.93;3.50;;;;;;;;;;5053176;28;20028;-58
2022/07/20 05:11:08;;;;;;;8.68;4.35;;;;;;;;;;5049946;28;20128;-58
2022/07/20 05:13:34;;;;;;;6.35;3.75;;;;;;;;;;5050980;28;20028;-58
2022/07/20 05:16:00;;;;;;;5.22;3.22;;;;;;;;;;5050090;28;20021;-57
2022/07/20 05:18:26;;;;;;;4.65;3.15;;;;;;;;;;5051200;28;20029;-58
2022/07/20 05:20:52;;;;;;;7.53;3.55;;;;;;;;;;5049620;28;20025;-55
2022/07/20 05:23:18;;;;;;;8.30;3.20;;;;;;;;;;5048285;28;20032;-58
2022/07/20 05:25:44;;;;;;;5.22;3.17;;;;;;;;;;5050538;28;20029;-61
2022/07/20 05:28:11;;;;;;;6.05;3.20;;;;;;;;;;5049799;28;20057;-58
2022/07/20 05:30:37;;;;;;;6.65;3.95;;;;;;;;;;5050936;28;20055;-59
2022/07/20 05:33:03;;;;;;;7.72;3.38;;;;;;;;;;5040139;28;20021;-58
2022/07/20 05:35:29;;;;;;;8.27;3.28;;;;;;;;;;5046846;28;20377;-56
2022/07/20 05:37:55;;;;;;;5.85;2.85;;;;;;;;;;5052303;28;20053;-59
2022/07/20 05:40:21;;;;;;;6.32;3.08;;;;;;;;;;5051561;28;20020;-57
2022/07/20 05:42:47;;;;;;;5.00;3.05;;;;;;;;;;5053816;28;20052;-54
2022/07/20 05:45:13;;;;;;;8.45;3.53;;;;;;;;;;5054343;28;20025;-59
2022/07/20 05:47:39;;;;;;;6.45;2.88;;;;;;;;;;5054128;28;20481;-60
2022/07/20 05:50:05;;;;;;;8.13;3.22;;;;;;;;;;5053518;28;20210;-57
2022/07/20 05:52:31;;;;;;;5.90;3.33;;;;;;;;;;5053793;28;20021;-62
2022/07/20 05:54:57;;;;;;;8.27;3.10;;;;;;;;;;5053428;28;20036;-53
2022/07/20 05:57:23;;;;;;;8.30;3.22;;;;;;;;;;5049888;28;20026;-49
2022/07/20 05:59:50;;;;;;;7.20;3.00;;;;;;;;;;5055051;28;20102;-58
2022/07/20 06:02:16;;;;;;;6.15;3.22;;;;;;;;;;5054959;28;20135;-58
2022/07/20 06:04:42;;;;;;;7.13;3.30;;;;;;;;;;5053938;28;20381;-57
2022/07/20 06:07:08;;;;;;;8.18;3.40;;;;;;;;;;5033033;28;20041;-58
2022/07/20 06:09:34;;;;;;;5.32;2.58;;;;;;;;;;5034347;28;20033;-56
2022/07/20 06:12:00;;;;;;;6.97;3.10;;;;;;;;;;5038372;28;20417;-52
2022/07/20 06:14:26;;;;;;;4.10;2.75;;;;;;;;;;5019192;28;20517;-55
2022/07/20 06:16:52;;;;;;;5.18;2.67;;;;;;;;;;5033304;28;20037;-55
2022/07/20 06:19:18;;;;;;;7.80;2.97;;;;;;;;;;5033118;28;20021;-55
2022/07/20 06:21:44;;;;;;;5.43;2.63;;;;;;;;;;5032236;28;20486;-52
2022/07/20 06:24:10;;;;;;;6.55;3.30;;;;;;;;;;5032295;28;20141;-53
2022/07/20 06:26:36;;;;;;;6.07;3.05;;;;;;;;;;5032969;28;20032;-53
2022/07/20 06:29:02;;;;;;;3.95;3.17;;;;;;;;;;5032312;28;20372;-51
2022/07/20 06:31:28;;;;;;;3.85;2.60;;;;;;;;;;5031414;28;20034;-54
2022/07/20 06:33:54;;;;;;;5.47;3.00;;;;;;;;;;5032561;28;20068;-52
2022/07/20 06:36:20;;;;;;;5.93;3.13;;;;;;;;;;5014926;28;20028;-52
2022/07/20 06:38:46;;;;;;;3.45;2.95;;;;;;;;;;5035050;28;20029;-54
2022/07/20 06:41:12;;;;;;;6.72;2.78;;;;;;;;;;5032891;28;20059;-54
2022/07/20 06:43:38;;;;;;;6.55;3.25;;;;;;;;;;5033020;28;20489;-54
2022/07/20 06:46:04;;;;;;;6.32;2.88;;;;;;;;;;5031584;28;20022;-52
2022/07/20 06:48:30;;;;;;;9.05;3.20;;;;;;;;;;5032644;28;20026;-54
2022/07/20 06:50:56;;;;;;;4.05;2.97;;;;;;;;;;5032424;28;20523;-55
2022/07/20 06:53:23;;;;;;;5.90;2.78;;;;;;;;;;5032748;28;20029;-53
2022/07/20 06:55:49;;;;;;;4.13;2.65;;;;;;;;;;5032165;28;20359;-46
2022/07/20 06:58:15;;;;;;;5.30;3.13;;;;;;;;;;5032309;28;20059;-53
2022/07/20 07:00:41;;;;;;;6.57;3.25;;;;;;;;;;5032540;28;20022;-54
2022/07/20 07:03:07;;;;;;;5.25;2.55;;;;;;;;;;5031975;28;20158;-54
2022/07/20 07:05:33;;;;;;;9.40;3.55;;;;;;;;;;5039483;28;20048;-55
2022/07/20 07:07:59;;;;;;;8.00;2.90;;;;;;;;;;5051010;28;20061;-54
2022/07/20 07:10:25;;;;;;;4.97;2.55;;;;;;;;;;5052188;28;20108;-52
2022/07/20 07:12:51;;;;;;;3.83;2.53;;;;;;;;;;5051796;28;20029;-48
2022/07/20 07:15:17;;;;;;;3.83;2.42;;;;;;;;;;5050602;28;20021;-53
2022/07/20 07:17:43;;;;;;;4.75;2.67;;;;;;;;;;5051575;28;20478;-54
2022/07/20 07:20:10;;;;;;;5.18;2.60;;;;;;;;;;5051314;28;20036;-54
2022/07/20 07:22:36;;;;;;;5.47;3.58;;;;;;;;;;5053204;28;20147;-54
2022/07/20 07:25:03;;;;;;;4.63;2.70;;;;;;;;;;5052111;28;20072;-55
2022/07/20 07:27:29;;;;;;;5.28;2.50;;;;;;;;;;5051842;28;20033;-55
2022/07/20 07:29:55;;;;;;;3.92;2.45;;;;;;;;;;5049323;28;20032;-54
2022/07/20 07:32:21;;;;;;;6.85;2.72;;;;;;;;;;5053339;28;20039;-55
2022/07/20 07:34:47;;;;;;;4.07;2.80;;;;;;;;;;5053124;28;20111;-54
2022/07/20 07:37:13;;;;;;;3.70;2.50;;;;;;;;;;5050374;28;20029;-55
2022/07/20 07:39:39;;;;;;;4.38;2.72;;;;;;;;;;5052577;28;20427;-55
2022/07/20 07:42:05;;;;;;;3.35;2.60;;;;;;;;;;5051776;28;20039;-55
2022/07/20 07:44:31;;;;;;;7.63;4.65;;;;;;;;;;5051155;28;20032;-55
2022/07/20 07:46:57;;;;;;;3.47;3.03;;;;;;;;;;5050435;28;20037;-55
2022/07/20 07:49:23;;;;;;;3.80;2.50;;;;;;;;;;5050861;28;20045;-55
2022/07/20 07:51:49;;;;;;;4.03;2.70;;;;;;;;;;5050817;28;20075;-55
2022/07/20 07:54:15;;;;;;;3.70;2.35;;;;;;;;;;5050155;28;20061;-54
2022/07/20 07:56:41;;;;;;;4.10;2.25;;;;;;;;;;5049635;28;20361;-54
2022/07/20 07:59:07;;;;;;;3.78;2.30;;;;;;;;;;5049997;28;20374;-56
2022/07/20 08:01:34;;;;;;;4.13;2.67;;;;;;;;;;5049780;28;20041;-55
2022/07/20 08:04:00;;;;;;;4.28;2.80;;;;;;;;;;5050341;28;20444;-54
2022/07/20 08:06:27;;;;;;;7.38;3.55;;;;;;;;;;5050430;28;20057;-56
2022/07/20 08:08:53;;;;;;;7.72;3.10;;;;;;;;;;5051548;28;20025;-51
2022/07/20 08:11:19;;;;;;;4.57;2.88;;;;;;;;;;5050672;28;20104;-56
2022/07/20 08:13:45;;;;;;;3.78;2.72;;;;;;;;;;5050553;28;20028;-51
2022/07/20 08:16:11;;;;;;;5.03;2.92;;;;;;;;;;5044148;28;20086;-52
2022/07/20 08:18:37;;;;;;;3.65;2.60;;;;;;;;;;5051134;28;20071;-55
2022/07/20 08:21:03;;;;;;;3.30;2.45;;;;;;;;;;5049696;28;20028;-55
2022/07/20 08:23:29;;;;;;;3.40;2.67;;;;;;;;;;5049005;28;20021;-55
2022/07/20 08:25:55;;;;;;;4.60;2.45;;;;;;;;;;5048753;28;20031;-49
2022/07/20 08:28:21;;;;;;;5.57;2.80;;;;;;;;;;5050051;28;20032;-54
2022/07/20 08:30:49;;;;;;;6.57;3.55;;;;;;;;;;5050595;28;20140;-56
2022/07/20 08:33:15;;;;;;;4.72;2.70;;;;;;;;;;5049941;28;20029;-55
2022/07/20 08:35:41;;;;;;;4.90;2.90;;;;;;;;;;5050729;28;20048;-55
2022/07/20 08:38:08;;;;;;;6.05;3.22;;;;;;;;;;5050240;28;20033;-56
2022/07/20 08:40:34;;;;;;;5.55;2.80;;;;;;;;;;5050496;28;20370;-56
2022/07/20 08:43:00;;;;;;;4.68;3.20;;;;;;;;;;5049747;28;20025;-56
2022/07/20 08:45:28;;;;;;;5.45;2.88;;;;;;;;;;5049957;28;20031;-55
2022/07/20 08:47:54;;;;;;;5.03;3.03;;;;;;;;;;5046287;28;20028;-49
2022/07/20 08:50:24;;;;;;;5.00;2.53;;;;;;;;;;5050176;28;20381;-55
2022/07/20 08:52:50;;;;;;;5.85;3.33;;;;;;;;;;5051026;28;20107;-56
2022/07/20 08:55:17;;;;;;;4.47;2.92;;;;;;;;;;5047272;28;20033;-56
2022/07/20 08:57:43;;;;;;;5.60;2.97;;;;;;;;;;5047248;28;20071;-55
2022/07/20 09:00:09;;;;;;;5.78;3.10;;;;;;;;;;5050291;28;20025;-54
2022/07/20 09:02:49;;;;;;;4.30;3.25;;;;;;;;;;5049646;28;20028;-55
2022/07/20 09:05:15;;;;;;;6.28;2.80;;;;;;;;;;5049675;28;20066;-55
2022/07/20 09:07:42;;;;;;;4.80;2.95;;;;;;;;;;5051696;28;20454;-53
2022/07/20 09:10:13;;;;;;;3.60;2.40;;;;;;;;;;5053144;28;20571;-51
2022/07/20 09:12:50;;;;;;;4.35;3.33;;;;;;;;;;5054333;28;20375;-55
2022/07/20 09:15:36;;;;;;;5.22;2.97;;;;;;;;;;5053551;28;20059;-53
2022/07/20 09:18:02;;;;;;;6.03;2.95;;;;;;;;;;5052245;28;20036;-53
2022/07/20 09:20:29;;;;;;;4.30;2.80;;;;;;;;;;5054108;28;20029;-54
2022/07/20 09:22:59;;;;;;;4.13;2.85;;;;;;;;;;5053758;28;20021;-49
2022/07/20 09:25:25;;;;;;;4.70;2.83;;;;;;;;;;5053970;28;20040;-55
2022/07/20 09:27:51;;;;;;;5.97;2.85;;;;;;;;;;5054135;28;20025;-55
2022/07/20 09:30:18;;;;;;;3.70;2.63;;;;;;;;;;5053273;28;20029;-55
2022/07/20 09:32:51;;;;;;;3.83;3.15;;;;;;;;;;5053954;28;20029;-53
2022/07/20 09:35:17;;;;;;;3.90;2.50;;;;;;;;;;5053416;28;20040;-54
2022/07/20 09:37:43;;;;;;;4.60;2.92;;;;;;;;;;5053809;28;20039;-55
2022/07/20 09:40:10;;;;;;;7.28;2.90;;;;;;;;;;5052937;28;20098;-53
2022/07/20 09:42:37;;;;;;;3.85;2.80;;;;;;;;;;5053241;28;20043;-55
2022/07/20 09:45:22;;;;;;;5.38;3.63;;;;;;;;;;5053132;28;20382;-54
2022/07/20 09:48:04;;;;;;;5.57;3.08;;;;;;;;;;5052274;28;20025;-54
2022/07/20 09:50:37;;;;;;;5.47;3.13;;;;;;;;;;5053895;28;20040;-55
2022/07/20 09:53:04;;;;;;;5.63;3.53;;;;;;;;;;5051778;28;20037;-54
2022/07/20 09:55:31;;;;;;;5.30;2.88;;;;;;;;;;5051993;28;20086;-54
2022/07/20 09:57:57;;;;;;;4.78;2.90;;;;;;;;;;5052384;28;20037;-51
2022/07/20 10:00:24;;;;;;;7.10;2.97;;;;;;;;;;5052992;28;20032;-54
2022/07/20 10:02:53;;;;;;;3.70;3.10;;;;;;;;;;5055666;28;20036;-55
2022/07/20 10:05:20;;;;;;;3.58;2.50;;;;;;;;;;5050471;28;20053;-55
2022/07/20 10:07:46;;;;;;;3.38;2.85;;;;;;;;;;5040229;28;20177;-55
2022/07/20 10:10:12;;;;;;;3.58;2.85;;;;;;;;;;5038630;28;20778;-54
2022/07/20 10:12:38;;;;;;;4.35;2.97;;;;;;;;;;5039679;28;20450;-54
2022/07/20 10:15:16;;;;;;;5.90;2.80;;;;;;;;;;5035298;28;20176;-55
2022/07/20 10:17:43;;;;;;;3.60;2.97;;;;;;;;;;5033472;28;20485;-55
2022/07/20 10:20:30;;;;;;;4.60;2.58;;;;;;;;;;5033500;28;20474;-54
2022/07/20 10:23:14;;;;;;;3.10;2.70;;;;;;;;;;5032404;28;20029;-47
2022/07/20 10:25:44;;;;;;;4.80;2.80;;;;;;;;;;5036171;28;20039;-54
2022/07/20 10:28:49;;;;;;;6.03;3.05;;;;;;;;;;5039388;28;20099;-54
2022/07/20 10:31:18;;;;;;;3.50;2.88;;;;;;;;;;4952471;28;20094;-53
2022/07/20 10:33:44;;;;;;;3.65;2.45;;;;;;;;;;4944455;28;20065;-54
2022/07/20 10:38:56;;;;;;;6.93;3.58;;;;;;;;;;4950109;28;20566;-47
2022/07/20 10:41:36;;;;;;;3.88;3.00;;;;;;;;;;4947050;28;20038;-52
2022/07/20 10:44:20;;;;;;;4.03;2.70;;;;;;;;;;4943830;28;20088;-55
2022/07/20 10:46:46;;;;;;;5.20;2.75;;;;;;;;;;4944503;28;20094;-55
2022/07/20 10:49:12;;;;;;;3.42;2.80;;;;;;;;;;4941295;28;20035;-54
2022/07/20 10:51:38;;;;;;;5.68;3.30;;;;;;;;;;4940793;28;20397;-54
2022/07/20 10:54:30;;;;;;;3.33;2.58;;;;;;;;;;4940730;28;20031;-55
2022/07/20 10:56:56;;;;;;;;;;;;;;;;;;4948646;28;20035;-46
2022/07/20 10:59:22;;;;;;;3.67;2.80;;;;;;;;;;4944738;28;19935;-54
2022/07/20 11:01:48;;;;;;;4.10;2.83;;;;;;;;;;4988027;28;20505;-54
2022/07/20 11:04:15;;;;;;;3.42;2.70;;;;;;;;;;5039623;28;20128;-55
2022/07/20 11:06:41;;;;;;;3.30;2.90;;;;;;;;;;5029233;28;20041;-54
2022/07/20 11:09:07;;;;;;;4.20;2.90;;;;;;;;;;5042912;28;20044;-54
2022/07/20 11:11:35;;;;;;;3.88;2.92;;;;;;;;;;5033565;28;20049;-53
2022/07/20 11:14:04;;;;;;;4.72;2.70;;;;;;;;;;5039498;28;20391;-50
2022/07/20 11:16:30;;;;;;;7.47;3.00;;;;;;;;;;5031849;28;20551;-53
2022/07/20 11:18:57;;;;;;;3.63;2.50;;;;;;;;;;5029334;28;20494;-47
2022/07/20 11:21:38;;;;;;;3.67;2.70;;;;;;;;;;5036211;28;20025;-50
2022/07/20 11:24:05;;;;;;;3.37;2.60;;;;;;;;;;5031813;28;20405;-51
2022/07/20 11:26:31;;;;;;;3.25;2.50;;;;;;;;;;5038897;28;20029;-52
2022/07/20 11:28:58;;;;;;;4.15;2.80;;;;;;;;;;5006161;28;20064;-48
2022/07/20 11:31:26;;;;;;;3.47;2.85;;;;;;;;;;5037636;28;20056;-49
2022/07/20 11:33:53;;;;;;;3.55;2.60;;;;;;;;;;5031511;28;20034;-50
2022/07/20 11:36:24;;;;;;;8.32;3.40;;;;;;;;;;5040081;28;20484;-49
2022/07/20 11:38:51;;;;;;;4.03;2.92;;;;;;;;;;5032259;28;20025;-50
2022/07/20 11:41:22;;;;;;;4.10;2.80;;;;;;;;;;5026233;28;20056;-49
2022/07/20 11:43:51;;;;;;;3.60;2.83;;;;;;;;;;5033134;28;20026;-51
2022/07/20 11:46:20;;;;;;;6.20;2.80;;;;;;;;;;5039572;28;20028;-55
2022/07/20 11:48:52;;;;;;;3.67;2.58;;;;;;;;;;5038668;28;20041;-53
2022/07/20 11:51:18;;;;;;;4.28;2.70;;;;;;;;;;5035514;28;20086;-55
2022/07/20 11:53:44;;;;;;;3.85;3.15;;;;;;;;;;5031336;28;20053;-53
2022/07/20 11:56:17;;;;;;;3.90;2.70;;;;;;;;;;5036068;28;20066;-54
2022/07/20 11:58:45;;;;;;;4.90;3.22;;;;;;;;;;5030142;28;20077;-54
2022/07/20 12:01:13;;;;;;;3.03;2.47;;;;;;;;;;5025609;28;20076;-52
2022/07/20 12:03:40;;;;;;;5.03;3.53;;;;;;;;;;5030161;28;20034;-54
2022/07/20 12:06:08;;;;;;;3.53;2.70;;;;;;;;;;5028136;28;20045;-58
2022/07/20 12:08:34;;;;;;;3.22;2.72;;;;;;;;;;5030317;28;20355;-53
2022/07/20 12:11:02;;;;;;;3.20;2.90;;;;;;;;;;5030000;28;20132;-55
2022/07/20 12:13:29;;;;;;;5.45;3.55;;;;;;;;;;5031226;28;20087;-52
2022/07/20 12:15:57;;;;;;;3.88;2.85;;;;;;;;;;5031020;28;20416;-51
2022/07/20 12:18:44;;;;;;;3.47;2.58;;;;;;;;;;5030356;28;20029;-54
2022/07/20 12:21:12;;;;;;;2.97;2.50;;;;;;;;;;5015097;28;20037;-54
2022/07/20 12:23:39;;;;;;;7.50;2.92;;;;;;;;;;5031074;28;20021;-55
2022/07/20 12:26:20;;;;;;;2.75;2.35;;;;;;;;;;5034732;28;20053;-55
2022/07/20 12:28:46;;;;;;;4.05;3.03;;;;;;;;;;5030852;28;20030;-53
2022/07/20 12:31:19;;;;;;;3.60;2.92;;;;;;;;;;5030160;28;20061;-54
2022/07/20 12:34:00;;;;;;;4.75;2.70;;;;;;;;;;5014339;28;20042;-54
2022/07/20 12:36:37;;;;;;;5.15;3.42;;;;;;;;;;5021476;28;20036;-54
2022/07/20 12:39:05;;;;;;;4.20;2.70;;;;;;;;;;5026552;28;20037;-54
2022/07/20 12:41:30;;;;;;;3.28;2.78;;;;;;;;;;5027866;28;20022;-53
2022/07/20 12:43:57;;;;;;;8.23;3.35;;;;;;;;;;5023504;28;20493;-49
2022/07/20 12:46:23;;;;;;;4.07;2.75;;;;;;;;;;5029961;28;20028;-53
2022/07/20 12:48:50;;;;;;;4.65;3.22;;;;;;;;;;5013037;28;20061;-52
2022/07/20 12:51:16;;;;;;;4.60;2.60;;;;;;;;;;5015330;28;20093;-50
2022/07/20 12:53:43;;;;;;;3.85;2.97;;;;;;;;;;5029909;28;20029;-53
2022/07/20 12:56:10;;;;;;;3.38;2.97;;;;;;;;;;5030188;28;20111;-53
2022/07/20 12:58:36;;;;;;;4.82;2.53;;;;;;;;;;5026377;28;20041;-54
2022/07/20 13:01:02;;;;;;;4.65;3.58;;;;;;;;;;5029347;28;20032;-49
2022/07/20 13:03:28;;;;;;;5.25;3.08;;;;;;;;;;5032296;28;20099;-54
2022/07/20 13:05:55;;;;;;;8.43;5.38;;;;;;;;;;5030332;28;20447;-52
2022/07/20 13:08:21;;;;;;;7.55;4.43;;;;;;;;;;5033881;28;20105;-52
2022/07/20 13:10:48;;;;;;;4.05;3.65;;;;;;;;;;5030776;28;20037;-51
2022/07/20 13:13:14;;;;;;;5.70;3.63;;;;;;;;;;5028428;28;20028;-53
2022/07/20 13:15:40;;;;;;;6.18;3.90;;;;;;;;;;5024469;28;20026;-54
2022/07/20 13:18:07;;;;;;;3.58;3.15;;;;;;;;;;5029198;28;20037;-54
2022/07/20 13:20:33;;;;;;;5.43;4.30;;;;;;;;;;5030347;28;20052;-53
2022/07/20 13:22:59;;;;;;;8.77;4.57;;;;;;;;;;5029967;28;20022;-48
2022/07/20 13:25:25;;;;;;;5.28;4.10;;;;;;;;;;5024877;28;20026;-52
2022/07/20 13:27:52;;;;;;;5.95;3.72;;;;;;;;;;5029588;28;20426;-52
2022/07/20 13:30:18;;;;;;;6.32;4.75;;;;;;;;;;5029900;28;20102;-54
2022/07/20 13:32:44;;;;;;;7.57;4.45;;;;;;;;;;5032385;28;20034;-50
2022/07/20 13:35:10;;;;;;;6.93;4.13;;;;;;;;;;5028986;28;20426;-52
2022/07/20 13:37:38;;;;;;;7.72;4.43;;;;;;;;;;5030028;28;20049;-52
2022/07/20 13:40:05;;;;;;;5.07;4.15;;;;;;;;;;5029333;28;20053;-52
2022/07/20 13:42:31;;;;;;;4.93;4.38;;;;;;;;;;5030253;28;20032;-52
2022/07/20 13:44:57;;;;;;;6.10;4.35;;;;;;;;;;5029804;28;20032;-51
2022/07/20 13:47:23;;;;;;;5.47;4.18;;;;;;;;;;5028582;28;20030;-53
2022/07/20 13:49:49;;;;;;;6.10;4.10;;;;;;;;;;5029975;28;20104;-54
2022/07/20 13:52:17;;;;;;;6.75;4.97;;;;;;;;;;5028422;28;20418;-55
2022/07/20 13:54:43;;;;;;;6.43;5.20;;;;;;;;;;5032218;28;20036;-56
2022/07/20 13:57:09;;;;;;;10.35;4.95;;;;;;;;;;5027953;28;20022;-53
2022/07/20 13:59:35;;;;;;;10.30;5.15;;;;;;;;;;5032659;28;20550;-62
2022/07/20 14:02:01;;;;;;;4.45;3.78;;;;;;;;;;5031732;28;20100;-49
2022/07/20 14:04:27;;;;;;;13.07;4.57;;;;;;;;;;5023634;28;20026;-52
2022/07/20 14:06:53;;;;;;;7.20;4.57;;;;;;;;;;5032779;28;20076;-52
2022/07/20 14:09:19;;;;;;;6.97;4.28;;;;;;;;;;5037009;28;20029;-53
2022/07/20 14:11:45;;;;;;;6.40;4.60;;;;;;;;;;5034156;28;20041;-53
2022/07/20 14:14:11;;;;;;;6.05;4.60;;;;;;;;;;5032607;28;20386;-54
2022/07/20 14:16:39;;;;;;;5.88;4.32;;;;;;;;;;5022677;28;20039;-53
2022/07/20 14:19:05;;;;;;;8.90;4.70;;;;;;;;;;5032621;28;20053;-54
2022/07/20 14:21:31;;;;;;;7.25;4.30;;;;;;;;;;5033678;28;20044;-50
2022/07/20 14:23:57;;;;;;;7.20;4.53;;;;;;;;;;5035427;28;20030;-54
2022/07/20 14:26:23;;;;;;;7.63;4.60;;;;;;;;;;5033806;28;20018;-53
2022/07/20 14:28:49;;;;;;;7.03;4.90;;;;;;;;;;5033876;28;20044;-52
2022/07/20 14:31:15;;;;;;;8.20;5.55;;;;;;;;;;5032736;28;20029;-50
2022/07/20 14:33:41;;;;;;;9.27;4.93;;;;;;;;;;5030287;28;20459;-49
2022/07/20 14:36:07;;;;;;;9.25;5.28;;;;;;;;;;5032255;28;20036;-53
2022/07/20 14:38:33;;;;;;;6.88;4.82;;;;;;;;;;5032826;28;20032;-50
2022/07/20 14:41:00;;;;;;;6.47;4.80;;;;;;;;;;5035133;28;20036;-49
2022/07/20 14:43:26;;;;;;;6.65;4.85;;;;;;;;;;5032987;28;20528;-50
2022/07/20 14:45:52;;;;;;;6.20;5.05;;;;;;;;;;5033686;28;20029;-50
2022/07/20 14:48:18;;;;;;;5.43;4.65;;;;;;;;;;5032307;28;20087;-51
2022/07/20 14:50:44;;;;;;;6.28;5.05;;;;;;;;;;5028464;28;20056;-48